createdAt,value
2018-04-24T00:01:51.269Z,95254.89
2018-04-24T00:04:20.291Z,95259.84
2018-04-24T00:06:48.561Z,95254.36
2018-04-24T00:09:16.817Z,95261.45
2018-04-24T00:11:45.851Z,95253.29
2018-04-24T00:14:14.131Z,95256.41
2018-04-24T00:16:42.394Z,95261.28
2018-04-24T00:19:10.646Z,95258.44
2018-04-24T00:21:39.687Z,95267.50
2018-04-24T00:24:07.943Z,95260.17
2018-04-24T00:26:36.206Z,95259.42
2018-04-24T00:29:05.241Z,95260.29
2018-04-24T00:31:33.502Z,95265.24
2018-04-24T00:34:01.762Z,95266.39
2018-04-24T00:36:30.028Z,95269.94
2018-04-24T00:38:58.285Z,95264.80
2018-04-24T00:41:27.783Z,95261.94
2018-04-24T00:43:56.050Z,95267.97
2018-04-24T00:46:24.310Z,95268.86
2018-04-24T00:48:52.583Z,95267.23
2018-04-24T00:51:21.620Z,95270.84
2018-04-24T00:53:49.877Z,95270.19
2018-04-24T00:56:18.136Z,95272.66
2018-04-24T00:58:47.156Z,95274.55
2018-04-24T01:01:15.406Z,95270.19
2018-04-24T01:03:43.662Z,95270.81
2018-04-24T01:06:11.925Z,95275.50
2018-04-24T01:08:40.185Z,95271.26
2018-04-24T01:11:08.443Z,95276.00
2018-04-24T01:13:37.475Z,95280.05
2018-04-24T01:16:05.727Z,95281.94
2018-04-24T01:18:33.995Z,95276.70
2018-04-24T01:21:03.011Z,95278.67
2018-04-24T01:23:31.270Z,95281.59
2018-04-24T01:26:00.287Z,95276.28
2018-04-24T01:28:28.551Z,95277.36
2018-04-24T01:30:57.576Z,95281.34
2018-04-24T01:33:25.851Z,95281.44
2018-04-24T01:35:54.103Z,95274.23
2018-04-24T01:38:22.363Z,95277.84
2018-04-24T01:40:50.610Z,95285.42
2018-04-24T01:43:18.883Z,95284.77
2018-04-24T01:45:47.136Z,95291.80
2018-04-24T01:48:16.168Z,95288.44
2018-04-24T01:50:44.419Z,95282.30
2018-04-24T01:53:13.442Z,95289.42
2018-04-24T01:55:41.859Z,95284.02
2018-04-24T01:58:10.110Z,95294.95
2018-04-24T02:00:38.363Z,95296.84
2018-04-24T02:03:07.386Z,95291.39
2018-04-24T02:05:35.637Z,95299.53
2018-04-24T02:08:04.665Z,95301.14
2018-04-24T02:10:32.928Z,95300.42
2018-04-24T02:13:01.195Z,95306.48
2018-04-24T02:15:30.214Z,95306.13
2018-04-24T02:17:58.811Z,95301.13
2018-04-24T02:20:27.065Z,95304.94
2018-04-24T02:22:56.095Z,95303.05
2018-04-24T02:25:24.349Z,95305.69
2018-04-24T02:27:52.607Z,95301.75
2018-04-24T02:30:21.623Z,95300.88
2018-04-24T02:32:49.893Z,95301.48
2018-04-24T02:35:18.911Z,95302.29
2018-04-24T02:37:47.179Z,95299.47
2018-04-24T02:40:16.199Z,95310.95
2018-04-24T02:42:44.458Z,95306.70
2018-04-24T02:45:12.714Z,95313.45
2018-04-24T02:47:40.971Z,95309.64
2018-04-24T02:50:09.231Z,95308.38
2018-04-24T02:52:37.487Z,95311.91
2018-04-24T02:55:05.760Z,95308.48
2018-04-24T02:57:36.031Z,95310.73
2018-04-24T03:00:04.279Z,95310.78
2018-04-24T03:02:32.531Z,95312.20
2018-04-24T03:05:01.568Z,95313.59
2018-04-24T03:07:29.819Z,95320.52
2018-04-24T03:09:58.848Z,95317.63
2018-04-24T03:12:27.099Z,95316.95
2018-04-24T03:14:56.129Z,95312.22
2018-04-24T03:17:24.379Z,95319.36
2018-04-24T03:19:53.395Z,95316.23
2018-04-24T03:22:21.654Z,95311.42
2018-04-24T03:24:50.678Z,95310.95
2018-04-24T03:27:18.930Z,95314.47
2018-04-24T03:29:47.959Z,95313.42
2018-04-24T03:32:16.207Z,95313.45
2018-04-24T03:34:45.235Z,95311.72
2018-04-24T03:37:13.494Z,95316.33
2018-04-24T03:39:42.513Z,95319.06
2018-04-24T03:42:10.788Z,95318.79
2018-04-24T03:44:39.035Z,95320.83
2018-04-24T03:47:07.279Z,95321.89
2018-04-24T03:49:35.550Z,95317.91
2018-04-24T03:52:03.806Z,95317.40
2018-04-24T03:54:32.070Z,95325.84
2018-04-24T03:57:00.327Z,95324.83
2018-04-24T03:59:28.588Z,95323.28
2018-04-24T04:01:56.843Z,95324.42
2018-04-24T04:04:25.110Z,95326.81
2018-04-24T04:06:53.364Z,95322.78
2018-04-24T04:09:22.387Z,95325.73
2018-04-24T04:11:51.559Z,95329.88
2018-04-24T04:14:20.583Z,95338.50
2018-04-24T04:16:51.131Z,95333.23
2018-04-24T04:19:37.892Z,95328.86
2018-04-24T04:22:24.865Z,95332.75
2018-04-24T04:24:53.092Z,95331.47
2018-04-24T04:27:22.106Z,95335.64
2018-04-24T04:29:50.366Z,95336.87
2018-04-24T04:32:19.383Z,95336.95
2018-04-24T04:34:47.643Z,95338.81
2018-04-24T04:37:16.712Z,95347.20
2018-04-24T04:39:44.975Z,95341.91
2018-04-24T04:42:13.231Z,95343.39
2018-04-24T04:44:41.495Z,95343.61
2018-04-24T04:47:09.743Z,95347.01
2018-04-24T04:49:38.013Z,95348.73
2018-04-24T04:52:06.271Z,95356.27
2018-04-24T04:54:34.551Z,95347.14
2018-04-24T04:57:02.802Z,95355.05
2018-04-24T04:59:31.071Z,95353.61
2018-04-24T05:02:00.090Z,95357.20
2018-04-24T05:04:28.338Z,95357.23
2018-04-24T05:06:57.371Z,95355.75
2018-04-24T05:09:25.645Z,95354.05
2018-04-24T05:11:54.718Z,95358.44
2018-04-24T05:14:22.915Z,95359.69
2018-04-24T05:16:51.170Z,95360.33
2018-04-24T05:19:20.323Z,95363.08
2018-04-24T05:21:48.593Z,95361.20
2018-04-24T05:24:16.843Z,95364.84
2018-04-24T05:26:45.870Z,95369.25
2018-04-24T05:29:14.119Z,95367.39
2018-04-24T05:31:43.147Z,95367.77
2018-04-24T05:34:11.411Z,95366.34
2018-04-24T05:36:39.676Z,95360.74
2018-04-24T05:39:08.691Z,95362.94
2018-04-24T05:41:36.954Z,95370.38
2018-04-24T05:44:05.896Z,95371.84
2018-04-24T05:46:34.161Z,95364.64
2018-04-24T05:49:02.482Z,95365.41
2018-04-24T05:51:30.736Z,95366.58
2018-04-24T05:53:58.987Z,95372.82
2018-04-24T05:56:27.257Z,95368.73
2018-04-24T05:58:56.271Z,95369.03
2018-04-24T06:01:25.318Z,95366.81
2018-04-24T06:03:53.586Z,95371.23
2018-04-24T06:06:21.835Z,95366.70
2018-04-24T06:08:50.115Z,95371.28
2018-04-24T06:11:18.378Z,95368.44
2018-04-24T06:13:46.627Z,95364.62
2018-04-24T06:16:14.895Z,95359.23
2018-04-24T06:18:43.146Z,95355.59
2018-04-24T06:21:11.423Z,95350.39
2018-04-24T06:23:39.678Z,95353.54
2018-04-24T06:26:08.710Z,95357.75
2018-04-24T06:28:37.036Z,95351.06
2018-04-24T06:31:05.227Z,95355.80
2018-04-24T06:33:34.239Z,95348.78
2018-04-24T06:36:02.601Z,95342.10
2018-04-24T06:38:32.333Z,95349.91
2018-04-24T06:41:01.347Z,95352.67
2018-04-24T06:43:29.611Z,95351.98
2018-04-24T06:45:57.865Z,95351.14
2018-04-24T06:48:26.900Z,95346.11
2018-04-24T06:50:55.918Z,95347.56
2018-04-24T06:53:24.183Z,95345.69
2018-04-24T06:55:52.444Z,95350.89
2018-04-24T06:58:21.476Z,95339.17
2018-04-24T07:00:49.792Z,95341.95
2018-04-24T07:03:17.998Z,95341.75
2018-04-24T07:05:47.022Z,95339.33
2018-04-24T07:08:15.313Z,95340.62
2018-04-24T07:10:43.592Z,95340.48
2018-04-24T07:13:12.897Z,95336.84
2018-04-24T07:15:41.151Z,95337.39
2018-04-24T07:18:09.419Z,95343.34
2018-04-24T07:20:38.418Z,95343.74
2018-04-24T07:23:07.446Z,95339.41
2018-04-24T07:25:35.702Z,95347.45
2018-04-24T07:28:04.723Z,95350.47
2018-04-24T07:30:33.000Z,95355.63
2018-04-24T07:33:01.310Z,95353.38
2018-04-24T07:35:29.514Z,95362.17
2018-04-24T07:37:57.780Z,95359.77
2018-04-24T07:40:26.032Z,95354.94
2018-04-24T07:42:54.304Z,95358.09
2018-04-24T07:45:22.559Z,95358.65
2018-04-24T07:47:50.827Z,95359.28
2018-04-24T07:50:19.855Z,95354.34
2018-04-24T07:52:48.123Z,95364.81
2018-04-24T07:55:16.375Z,95359.22
2018-04-24T07:57:44.631Z,95356.36
2018-04-24T08:00:12.901Z,95356.12
2018-04-24T08:02:41.159Z,95356.95
2018-04-24T08:05:09.439Z,95352.59
2018-04-24T08:07:37.705Z,95344.20
2018-04-24T08:10:06.799Z,95340.99
2018-04-24T08:12:35.811Z,95342.14
2018-04-24T08:15:04.079Z,95336.63
2018-04-24T08:17:32.335Z,95338.94
2018-04-24T08:20:00.605Z,95334.14
2018-04-24T08:22:38.508Z,95336.55
2018-04-24T08:25:06.762Z,95328.08
2018-04-24T08:27:35.024Z,95330.66
2018-04-24T08:30:03.292Z,95325.39
2018-04-24T08:32:31.547Z,95322.09
2018-04-24T08:35:00.579Z,95326.58
2018-04-24T08:37:28.829Z,95327.31
2018-04-24T08:39:57.892Z,95321.33
2018-04-24T08:42:26.130Z,95318.48
2018-04-24T08:44:54.390Z,95321.58
2018-04-24T08:47:23.420Z,95311.68
2018-04-24T08:49:51.677Z,95316.47
2018-04-24T08:52:19.935Z,95312.42
2018-04-24T08:54:48.218Z,95309.31
2018-04-24T08:57:16.452Z,95311.08
2018-04-24T08:59:44.708Z,95312.56
2018-04-24T09:02:12.963Z,95299.14
2018-04-24T09:04:43.639Z,95298.56
2018-04-24T09:07:11.890Z,95302.93
2018-04-24T09:09:40.918Z,95288.53
2018-04-24T09:12:09.166Z,95289.73
2018-04-24T09:14:38.203Z,95281.91
2018-04-24T09:17:06.446Z,95286.97
2018-04-24T09:19:34.718Z,95279.42
2018-04-24T09:22:03.743Z,95280.92
2018-04-24T09:24:32.002Z,95273.98
2018-04-24T09:27:01.112Z,95270.26
2018-04-24T09:29:29.286Z,95272.58
2018-04-24T09:31:58.316Z,95269.64
2018-04-24T09:34:26.566Z,95274.43
2018-04-24T09:36:54.822Z,95270.72
2018-04-24T09:39:23.843Z,95269.32
2018-04-24T09:41:52.304Z,95268.92
2018-04-24T09:44:20.551Z,95270.42
2018-04-24T09:46:48.824Z,95264.64
2018-04-24T09:49:17.076Z,95266.59
2018-04-24T09:51:45.346Z,95270.25
2018-04-24T09:54:14.584Z,95261.11
2018-04-24T09:56:42.884Z,95265.27
2018-04-24T09:59:11.108Z,95260.86
2018-04-24T10:01:39.392Z,95254.28
2018-04-24T10:04:07.642Z,95251.34
2018-04-24T10:06:35.903Z,95247.23
2018-04-24T10:09:04.155Z,95250.54
2018-04-24T10:11:32.415Z,95244.19
2018-04-24T10:14:00.667Z,95245.34
2018-04-24T10:16:28.939Z,95245.18
2018-04-24T10:18:57.191Z,95236.81
2018-04-24T10:21:25.507Z,95229.59
2018-04-24T10:23:53.779Z,95228.91
2018-04-24T10:26:22.047Z,95224.66
2018-04-24T10:28:50.303Z,95222.67
2018-04-24T10:31:18.578Z,95217.88
2018-04-24T10:33:46.837Z,95223.18
2018-04-24T10:36:16.227Z,95207.52
2018-04-24T10:38:45.263Z,95207.81
2018-04-24T10:41:13.531Z,95210.19
2018-04-24T10:43:41.785Z,95207.06
2018-04-24T10:46:10.059Z,95194.65
2018-04-24T10:48:38.300Z,95193.79
2018-04-24T10:51:06.556Z,95196.73
2018-04-24T10:53:34.818Z,95189.21
2018-04-24T10:56:03.925Z,95189.05
2018-04-24T10:58:32.098Z,95189.23
2018-04-24T11:01:00.354Z,95189.84
2018-04-24T11:03:28.635Z,95179.70
2018-04-24T11:05:56.893Z,95182.61
2018-04-24T11:08:25.153Z,95182.11
2018-04-24T11:10:53.406Z,95173.39
2018-04-24T11:13:21.682Z,95173.30
2018-04-24T11:15:49.947Z,95179.39
2018-04-24T11:18:18.678Z,95171.08
2018-04-24T11:20:46.932Z,95174.08
2018-04-24T11:23:15.198Z,95188.98
2018-04-24T11:25:44.223Z,95167.58
2018-04-24T11:28:12.491Z,95167.45
2018-04-24T11:30:40.738Z,95171.80
2018-04-24T11:33:09.027Z,95167.25
2018-04-24T11:35:37.276Z,95159.47
2018-04-24T11:38:05.540Z,95154.84
2018-04-24T11:40:33.779Z,95152.33
2018-04-24T11:43:02.817Z,95158.95
2018-04-24T11:45:31.722Z,95158.09
2018-04-24T11:47:59.983Z,95147.30
2018-04-24T11:50:28.240Z,95144.97
2018-04-24T11:52:57.262Z,95134.62
2018-04-24T11:55:25.523Z,95145.17
2018-04-24T11:57:54.551Z,95142.12
2018-04-24T12:00:22.804Z,95139.58
2018-04-24T12:02:51.083Z,95144.41
2018-04-24T12:05:20.079Z,95142.72
2018-04-24T12:07:49.126Z,95136.06
2018-04-24T12:10:17.397Z,95144.11
2018-04-24T12:12:45.657Z,95131.17
2018-04-24T12:15:13.903Z,95129.41
2018-04-24T12:17:42.928Z,95128.16
2018-04-24T12:20:11.176Z,95124.72
2018-04-24T12:22:40.204Z,95131.11
2018-04-24T12:25:08.465Z,95128.92
2018-04-24T12:27:37.496Z,95118.48
2018-04-24T12:30:05.756Z,95126.55
2018-04-24T12:32:34.025Z,95122.59
2018-04-24T12:35:03.055Z,95120.89
2018-04-24T12:37:31.314Z,95113.32
2018-04-24T12:39:59.562Z,95108.84
2018-04-24T12:42:27.808Z,95102.52
2018-04-24T12:44:56.079Z,95109.50
2018-04-24T12:47:24.332Z,95110.36
2018-04-24T12:49:53.628Z,95105.19
2018-04-24T12:52:22.637Z,95103.67
2018-04-24T12:54:50.893Z,95098.16
2018-04-24T12:57:19.929Z,95091.69
2018-04-24T12:59:48.178Z,95098.20
2018-04-24T13:02:17.196Z,95095.91
2018-04-24T13:04:45.522Z,95085.38
2018-04-24T13:07:14.478Z,95089.12
2018-04-24T13:09:42.762Z,95088.19
2018-04-24T13:12:11.002Z,95088.39
2018-04-24T13:14:39.270Z,95082.57
2018-04-24T13:17:07.542Z,95069.00
2018-04-24T13:19:35.808Z,95075.03
2018-04-24T13:22:04.071Z,95076.52
2018-04-24T13:24:32.813Z,95079.42
2018-04-24T13:27:01.059Z,95069.08
2018-04-24T13:29:29.327Z,95056.45
2018-04-24T13:31:57.586Z,95052.59
2018-04-24T13:34:26.610Z,95062.03
2018-04-24T13:36:54.864Z,95054.92
2018-04-24T13:39:23.883Z,95051.77
2018-04-24T13:41:52.242Z,95051.28
2018-04-24T13:44:22.524Z,95045.84
2018-04-24T13:46:50.763Z,95041.16
2018-04-24T13:49:19.060Z,95040.66
2018-04-24T13:51:47.306Z,95040.09
2018-04-24T13:54:16.334Z,95038.97
2018-04-24T13:56:45.432Z,95032.61
2018-04-24T13:59:13.704Z,95033.42
2018-04-24T14:01:41.954Z,95020.16
2018-04-24T14:04:11.867Z,95020.16
2018-04-24T14:06:40.878Z,95021.16
2018-04-24T14:09:09.903Z,95024.63
2018-04-24T14:11:38.163Z,95018.85
2018-04-24T14:14:06.471Z,95015.94
2018-04-24T14:16:34.722Z,95013.88
2018-04-24T14:19:02.995Z,95011.45
2018-04-24T14:21:32.051Z,95008.30
2018-04-24T14:24:00.278Z,95014.91
2018-04-24T14:26:29.299Z,95008.00
2018-04-24T14:28:58.402Z,95010.20
2018-04-24T14:31:26.655Z,95007.06
2018-04-24T14:33:55.679Z,94995.41
2018-04-24T14:36:25.290Z,95001.13
2018-04-24T14:38:53.540Z,94997.16
2018-04-24T14:41:22.567Z,94997.77
2018-04-24T14:43:50.823Z,94995.92
2018-04-24T14:46:19.847Z,94993.69
2018-04-24T14:48:48.188Z,94998.16
2018-04-24T14:51:16.383Z,94995.59
2018-04-24T14:53:44.628Z,94990.72
2018-04-24T14:56:12.894Z,94996.64
2018-04-24T14:58:41.141Z,94999.06
2018-04-24T15:01:09.417Z,94995.87
2018-04-24T15:03:37.676Z,94989.13
2018-04-24T15:06:06.699Z,94985.75
2018-04-24T15:08:34.959Z,94980.55
2018-04-24T15:11:03.997Z,94977.30
2018-04-24T15:13:32.238Z,94982.10
2018-04-24T15:16:00.495Z,94980.30
2018-04-24T15:18:28.767Z,94985.87
2018-04-24T15:20:57.032Z,94989.64
2018-04-24T15:23:25.291Z,94987.65
2018-04-24T15:25:53.543Z,94981.74
2018-04-24T15:28:21.796Z,94979.05
2018-04-24T15:30:50.059Z,94987.66
2018-04-24T15:33:18.336Z,94976.23
2018-04-24T15:35:46.595Z,94975.12
2018-04-24T15:38:14.854Z,94980.77
2018-04-24T15:40:43.114Z,94979.45
2018-04-24T15:43:12.152Z,94974.91
2018-04-24T15:45:40.411Z,94978.34
2018-04-24T15:48:08.758Z,94977.30
2018-04-24T15:50:37.688Z,94977.28
2018-04-24T15:53:05.951Z,94970.92
2018-04-24T15:55:34.975Z,94969.61
2018-04-24T15:58:03.226Z,94971.09
2018-04-24T16:00:32.260Z,94964.80
2018-04-24T16:03:00.528Z,94963.89
2018-04-24T16:05:28.801Z,94964.50
2018-04-24T16:07:57.814Z,94969.08
2018-04-24T16:10:26.078Z,94966.00
2018-04-24T16:12:54.341Z,94959.14
2018-04-24T16:15:23.366Z,94959.70
2018-04-24T16:17:51.627Z,94958.74
2018-04-24T16:20:20.643Z,94959.11
2018-04-24T16:22:48.909Z,94953.55
2018-04-24T16:25:17.794Z,94952.20
2018-04-24T16:27:46.823Z,94946.08
2018-04-24T16:30:15.080Z,94950.39
2018-04-24T16:32:44.109Z,94959.80
2018-04-24T16:35:12.358Z,94950.16
2018-04-24T16:37:40.628Z,94952.39
2018-04-24T16:40:09.651Z,94952.70
2018-04-24T16:42:37.911Z,94956.58
2018-04-24T16:45:06.942Z,94949.17
2018-04-24T16:47:35.857Z,94948.37
2018-04-24T16:50:04.107Z,94949.01
2018-04-24T16:52:32.355Z,94941.97
2018-04-24T16:55:01.384Z,94948.59
2018-04-24T16:57:30.257Z,94945.02
2018-04-24T16:59:59.282Z,94943.71
2018-04-24T17:02:27.558Z,94941.38
2018-04-24T17:04:55.813Z,94939.72
2018-04-24T17:07:24.847Z,94940.81
2018-04-24T17:09:53.122Z,94939.47
2018-04-24T17:12:21.376Z,94935.28
2018-04-24T17:14:50.405Z,94928.94
2018-04-24T17:17:18.688Z,94933.66
2018-04-24T17:19:46.962Z,94937.52
2018-04-24T17:22:15.339Z,94941.41
2018-04-24T17:24:43.591Z,94937.66
2018-04-24T17:27:12.614Z,94938.06
2018-04-24T17:29:41.706Z,94935.97
2018-04-24T17:32:09.977Z,94933.72
2018-04-24T17:34:38.263Z,94936.95
2018-04-24T17:37:06.541Z,94937.69
2018-04-24T17:39:37.967Z,94940.88
2018-04-24T17:42:06.233Z,94938.30
2018-04-24T17:44:34.483Z,94937.23
2018-04-24T17:47:02.744Z,94937.76
2018-04-24T17:49:31.010Z,94941.39
2018-04-24T17:52:00.048Z,94937.24
2018-04-24T17:54:28.295Z,94932.72
2018-04-24T17:56:56.558Z,94938.56
2018-04-24T17:59:25.573Z,94940.47
2018-04-24T18:01:55.082Z,94945.02
2018-04-24T18:04:23.562Z,94945.22
2018-04-24T18:06:51.847Z,94947.59
2018-04-24T18:09:20.117Z,94941.88
2018-04-24T18:11:49.143Z,94944.30
2018-04-24T18:14:17.392Z,94947.98
2018-04-24T18:16:46.428Z,94946.33
2018-04-24T18:19:14.688Z,94947.83
2018-04-24T18:21:42.959Z,94944.84
2018-04-24T18:24:11.988Z,94951.56
2018-04-24T18:26:40.239Z,94945.59
2018-04-24T18:29:09.266Z,94948.60
2018-04-24T18:31:37.520Z,94947.59
2018-04-24T18:34:06.555Z,94947.66
2018-04-24T18:36:34.815Z,94948.62
2018-04-24T18:39:03.082Z,94950.53
2018-04-24T18:41:31.344Z,94958.27
2018-04-24T18:44:00.994Z,94962.78
2018-04-24T18:46:29.246Z,94956.05
2018-04-24T18:48:58.275Z,94963.84
2018-04-24T18:51:26.532Z,94966.94
2018-04-24T18:53:54.799Z,94967.89
2018-04-24T18:56:23.824Z,94964.36
2018-04-24T18:58:52.088Z,94965.72
2018-04-24T19:01:21.099Z,94966.48
2018-04-24T19:03:49.377Z,94967.58
2018-04-24T19:06:17.619Z,94969.47
2018-04-24T19:08:45.901Z,94971.45
2018-04-24T19:11:14.152Z,94975.55
2018-04-24T19:13:42.413Z,94975.53
2018-04-24T19:16:11.904Z,94976.33
2018-04-24T19:18:45.726Z,94984.80
2018-04-24T19:21:13.972Z,94981.58
2018-04-24T19:23:43.017Z,94984.05
2018-04-24T19:26:11.256Z,94985.56
2018-04-24T19:28:40.309Z,94987.44
2018-04-24T19:31:13.824Z,94985.41
2018-04-24T19:33:42.077Z,94983.34
2018-04-24T19:36:10.339Z,94985.03
2018-04-24T19:38:38.602Z,94980.82
2018-04-24T19:41:12.325Z,94984.25
2018-04-24T19:43:40.524Z,94986.94
2018-04-24T19:46:08.776Z,94988.61
2018-04-24T19:48:42.430Z,94984.50
2018-04-24T19:51:10.680Z,94990.47
2018-04-24T19:53:38.944Z,94988.03
2018-04-24T19:56:07.191Z,94986.14
2018-04-24T19:58:35.787Z,94982.47
2018-04-24T20:01:03.988Z,94982.34
2018-04-24T20:03:32.271Z,94978.22
2018-04-24T20:06:00.523Z,94972.41
2018-04-24T20:08:29.556Z,94979.94
2018-04-24T20:10:57.810Z,94973.06
2018-04-24T20:13:26.839Z,94968.11
2018-04-24T20:15:55.097Z,94971.84
2018-04-24T20:18:23.398Z,94970.84
2018-04-24T20:20:51.615Z,94965.06
2018-04-24T20:23:19.872Z,94967.23
2018-04-24T20:25:48.127Z,94963.07
2018-04-24T20:28:16.389Z,94965.19
2018-04-24T20:30:45.435Z,94958.52
2018-04-24T20:33:13.694Z,94955.44
2018-04-24T20:35:41.959Z,94964.93
2018-04-24T20:38:10.218Z,94965.02
2018-04-24T20:40:39.256Z,94964.77
2018-04-24T20:43:07.506Z,94960.47
2018-04-24T20:45:36.531Z,94956.69
2018-04-24T20:48:04.801Z,94958.41
2018-04-24T20:50:33.067Z,94952.09
2018-04-24T20:53:02.079Z,94955.91
2018-04-24T20:55:30.373Z,94959.84
2018-04-24T20:57:58.631Z,94956.14
2018-04-24T21:00:26.907Z,94952.25
2018-04-24T21:02:55.926Z,94951.37
2018-04-24T21:05:24.203Z,94956.91
2018-04-24T21:07:52.449Z,94953.78
2018-04-24T21:10:21.485Z,94952.11
2018-04-24T21:12:49.742Z,94946.73
2018-04-24T21:15:18.251Z,94946.73
2018-04-24T21:17:46.506Z,94949.98
2018-04-24T21:20:15.528Z,94952.55
2018-04-24T21:22:43.797Z,94956.22
2018-04-24T21:25:12.077Z,94952.21
2018-04-24T21:27:40.311Z,94947.94
2018-04-24T21:30:08.583Z,94949.16
2018-04-24T21:32:36.830Z,94953.68
2018-04-24T21:35:05.144Z,94949.71
2018-04-24T21:37:34.596Z,94947.44
2018-04-24T21:40:03.996Z,94942.83
2018-04-24T21:42:33.013Z,94946.48
2018-04-24T21:45:01.283Z,94940.20
2018-04-24T21:47:29.537Z,94937.91
2018-04-24T21:49:57.803Z,94929.36
2018-04-24T21:52:26.464Z,94929.40
2018-04-24T21:54:54.715Z,94926.94
2018-04-24T21:57:22.971Z,94930.33
2018-04-24T21:59:51.237Z,94927.64
2018-04-24T22:02:19.482Z,94928.36
2018-04-24T22:04:47.725Z,94921.85
2018-04-24T22:07:16.757Z,94924.08
2018-04-24T22:09:44.995Z,94932.20
2018-04-24T22:12:14.279Z,94932.66
2018-04-24T22:14:42.528Z,94929.96
2018-04-24T22:17:10.771Z,94934.31
2018-04-24T22:19:39.853Z,94933.34
2018-04-24T22:22:08.247Z,94925.96
2018-04-24T22:24:37.259Z,94926.94
2018-04-24T22:27:05.547Z,94920.53
2018-04-24T22:29:33.769Z,94921.21
2018-04-24T22:32:02.030Z,94922.30
2018-04-24T22:34:30.275Z,94917.25
2018-04-24T22:36:58.783Z,94923.12
2018-04-24T22:39:27.028Z,94923.28
2018-04-24T22:41:56.040Z,94918.81
2018-04-24T22:44:24.296Z,94917.92
2018-04-24T22:46:52.553Z,94919.83
2018-04-24T22:49:20.800Z,94908.59
2018-04-24T22:51:49.055Z,94913.31
2018-04-24T22:54:18.080Z,94908.11
2018-04-24T22:56:46.352Z,94909.27
2018-04-24T22:59:14.591Z,94909.04
2018-04-24T23:01:42.850Z,94907.44
2018-04-24T23:04:11.087Z,94910.61
2018-04-24T23:06:39.342Z,94910.20
2018-04-24T23:09:08.347Z,94906.50
2018-04-24T23:11:54.941Z,94906.58
2018-04-24T23:14:41.440Z,94907.63
2018-04-24T23:17:28.035Z,94909.68
2018-04-24T23:20:14.591Z,94902.19
2018-04-24T23:22:42.850Z,94905.27
2018-04-24T23:25:11.086Z,94906.31
2018-04-24T23:27:40.107Z,94906.03
2018-04-24T23:30:08.351Z,94900.16
2018-04-24T23:32:36.612Z,94901.38
2018-04-24T23:35:04.853Z,94893.22
2018-04-24T23:37:33.102Z,94889.70
2018-04-24T23:40:01.413Z,94887.14
2018-04-24T23:42:29.603Z,94885.85
2018-04-24T23:44:57.852Z,94882.36
2018-04-24T23:47:26.872Z,94883.27
2018-04-24T23:49:55.115Z,94880.97
2018-04-24T23:52:23.397Z,94878.27
2018-04-24T23:54:51.638Z,94871.34
2018-04-24T23:57:19.897Z,94874.20
2018-04-24T23:59:48.138Z,94871.34
